createdAt,value
2018-03-06T00:01:58.778Z,53.13
2018-03-06T00:04:27.018Z,51.45
2018-03-06T00:06:54.538Z,51.30
2018-03-06T00:09:22.047Z,51.72
2018-03-06T00:11:49.553Z,52.70
2018-03-06T00:14:17.063Z,51.83
2018-03-06T00:16:44.569Z,52.80
2018-03-06T00:19:12.048Z,53.75
2018-03-06T00:21:39.556Z,50.70
2018-03-06T00:24:07.066Z,50.88
2018-03-06T00:26:34.554Z,51.60
2018-03-06T00:29:02.022Z,51.67
2018-03-06T00:31:29.527Z,53.00
2018-03-06T00:33:57.026Z,53.33
2018-03-06T00:36:24.525Z,51.67
2018-03-06T00:38:52.767Z,51.25
2018-03-06T00:41:20.285Z,48.80
2018-03-06T00:43:47.771Z,50.65
2018-03-06T00:46:15.480Z,50.22
2018-03-06T00:48:43.727Z,53.75
2018-03-06T00:51:11.264Z,51.60
2018-03-06T00:53:38.754Z,52.35
2018-03-06T00:56:06.291Z,50.45
2018-03-06T00:58:33.769Z,50.47
2018-03-06T01:01:01.243Z,49.45
2018-03-06T01:03:29.522Z,51.08
2018-03-06T01:05:57.775Z,52.42
2018-03-06T01:08:25.301Z,49.85
2018-03-06T01:10:52.778Z,48.80
2018-03-06T01:13:20.286Z,50.83
2018-03-06T01:15:48.535Z,48.83
2018-03-06T01:18:16.044Z,51.33
2018-03-06T01:20:43.538Z,50.55
2018-03-06T01:23:11.045Z,51.63
2018-03-06T01:25:38.544Z,50.12
2018-03-06T01:28:06.029Z,51.53
2018-03-06T01:30:33.551Z,51.95
2018-03-06T01:33:01.032Z,51.22
2018-03-06T01:35:28.531Z,50.80
2018-03-06T01:37:56.783Z,51.88
2018-03-06T01:40:24.325Z,50.03
2018-03-06T01:42:51.795Z,53.80
2018-03-06T01:45:19.294Z,52.65
2018-03-06T01:47:46.802Z,52.75
2018-03-06T01:50:14.330Z,52.85
2018-03-06T01:52:42.822Z,52.17
2018-03-06T01:55:10.314Z,53.63
2018-03-06T01:57:37.821Z,50.10
2018-03-06T02:00:05.311Z,48.45
2018-03-06T02:02:32.812Z,52.75
2018-03-06T02:05:01.066Z,49.90
2018-03-06T02:07:28.586Z,51.50
2018-03-06T02:09:56.098Z,53.53
2018-03-06T02:12:23.639Z,50.55
2018-03-06T02:14:51.132Z,51.10
2018-03-06T02:17:19.403Z,47.60
2018-03-06T02:19:47.651Z,50.83
2018-03-06T02:22:15.181Z,49.50
2018-03-06T02:24:42.668Z,48.30
2018-03-06T02:27:10.198Z,48.75
2018-03-06T02:29:37.689Z,46.53
2018-03-06T02:32:05.166Z,50.50
2018-03-06T02:34:32.671Z,49.38
2018-03-06T02:37:00.150Z,49.75
2018-03-06T02:39:27.664Z,49.30
2018-03-06T02:41:55.152Z,48.95
2018-03-06T02:44:22.682Z,48.85
2018-03-06T02:46:50.161Z,46.70
2018-03-06T02:49:17.633Z,50.78
2018-03-06T02:51:45.170Z,51.63
2018-03-06T02:54:12.658Z,50.22
2018-03-06T02:56:40.152Z,47.60
2018-03-06T02:59:07.666Z,50.60
2018-03-06T03:01:35.151Z,49.65
2018-03-06T03:04:02.655Z,50.60
2018-03-06T03:06:30.194Z,50.50
2018-03-06T03:08:58.434Z,49.58
2018-03-06T03:11:25.903Z,50.55
2018-03-06T03:13:53.432Z,49.72
2018-03-06T03:16:20.922Z,50.55
2018-03-06T03:18:48.427Z,48.95
2018-03-06T03:21:16.678Z,49.13
2018-03-06T03:23:44.218Z,47.97
2018-03-06T03:26:11.711Z,48.47
2018-03-06T03:28:39.962Z,49.95
2018-03-06T03:31:07.466Z,50.83
2018-03-06T03:33:35.003Z,51.40
2018-03-06T03:36:03.301Z,48.35
2018-03-06T03:38:30.826Z,47.75
2018-03-06T03:40:58.333Z,47.62
2018-03-06T03:43:25.806Z,48.58
2018-03-06T03:45:53.319Z,48.87
2018-03-06T03:48:21.562Z,48.87
2018-03-06T03:50:49.086Z,49.63
2018-03-06T03:53:16.571Z,50.03
2018-03-06T03:55:44.094Z,49.83
2018-03-06T03:58:11.571Z,48.97
2018-03-06T04:00:39.066Z,51.10
2018-03-06T04:03:06.582Z,47.25
2018-03-06T04:05:34.057Z,46.37
2018-03-06T04:08:01.574Z,47.20
2018-03-06T04:10:29.065Z,50.78
2018-03-06T04:12:56.576Z,48.30
2018-03-06T04:15:24.088Z,50.70
2018-03-06T04:17:51.612Z,47.65
2018-03-06T04:20:19.160Z,48.65
2018-03-06T04:22:47.414Z,48.85
2018-03-06T04:25:14.930Z,48.67
2018-03-06T04:27:42.424Z,50.15
2018-03-06T04:30:09.944Z,49.55
2018-03-06T04:32:37.443Z,50.85
2018-03-06T04:35:05.000Z,49.80
2018-03-06T04:37:32.498Z,46.50
2018-03-06T04:40:00.741Z,50.95
2018-03-06T04:42:28.290Z,48.58
2018-03-06T04:44:55.791Z,47.85
2018-03-06T04:47:24.067Z,48.30
2018-03-06T04:49:52.331Z,49.05
2018-03-06T04:52:19.872Z,49.15
2018-03-06T04:54:47.370Z,52.40
2018-03-06T04:57:15.659Z,49.67
2018-03-06T04:59:43.171Z,49.05
2018-03-06T05:02:10.698Z,50.97
2018-03-06T05:04:38.210Z,51.45
2018-03-06T05:07:06.454Z,51.47
2018-03-06T05:09:33.959Z,48.78
2018-03-06T05:12:02.206Z,47.58
2018-03-06T05:14:29.726Z,48.58
2018-03-06T05:16:57.218Z,46.55
2018-03-06T05:19:24.747Z,46.80
2018-03-06T05:21:52.227Z,48.85
2018-03-06T05:24:19.738Z,51.28
2018-03-06T05:26:47.239Z,50.45
2018-03-06T05:29:14.773Z,48.67
2018-03-06T05:31:42.253Z,48.15
2018-03-06T05:34:09.728Z,48.45
2018-03-06T05:36:37.244Z,50.70
2018-03-06T05:39:04.726Z,46.75
2018-03-06T05:41:32.242Z,51.05
2018-03-06T05:44:00.481Z,51.03
2018-03-06T05:46:27.986Z,48.80
2018-03-06T05:48:55.481Z,49.50
2018-03-06T05:51:22.982Z,54.35
2018-03-06T05:53:51.301Z,75.57
2018-03-06T05:56:18.795Z,61.40
2018-03-06T05:58:46.302Z,56.00
2018-03-06T06:01:13.794Z,54.30
2018-03-06T06:03:41.310Z,52.38
2018-03-06T06:06:09.590Z,53.38
2018-03-06T06:08:37.086Z,50.20
2018-03-06T06:11:04.589Z,51.47
2018-03-06T06:13:32.867Z,49.47
2018-03-06T06:16:00.361Z,51.53
2018-03-06T06:18:27.840Z,52.20
2018-03-06T06:20:55.342Z,50.30
2018-03-06T06:23:22.853Z,52.55
2018-03-06T06:25:50.376Z,50.12
2018-03-06T06:28:18.640Z,53.05
2018-03-06T06:30:46.171Z,53.83
2018-03-06T06:33:13.662Z,55.30
2018-03-06T06:35:41.951Z,54.25
2018-03-06T06:38:10.219Z,54.40
2018-03-06T06:40:38.475Z,52.10
2018-03-06T06:43:05.973Z,49.97
2018-03-06T06:45:33.457Z,52.03
2018-03-06T06:48:00.982Z,54.50
2018-03-06T06:50:29.247Z,54.13
2018-03-06T06:55:27.730Z,52.15
2018-03-06T06:57:55.230Z,52.72
2018-03-06T07:00:22.730Z,50.28
2018-03-06T07:02:50.240Z,60.58
2018-03-06T07:05:17.731Z,70.93
2018-03-06T07:07:45.230Z,58.60
2018-03-06T07:10:12.720Z,53.67
2018-03-06T07:12:40.981Z,54.72
2018-03-06T07:15:09.243Z,52.75
2018-03-06T07:17:36.773Z,51.45
2018-03-06T07:20:04.270Z,55.58
2018-03-06T07:22:32.557Z,49.63
2018-03-06T07:25:00.859Z,58.08
2018-03-06T07:27:28.375Z,55.63
2018-03-06T07:29:55.931Z,54.30
2018-03-06T07:32:23.412Z,58.97
2018-03-06T07:34:51.681Z,54.35
2018-03-06T07:37:19.932Z,59.17
2018-03-06T07:39:47.464Z,58.30
2018-03-06T07:42:14.982Z,59.05
2018-03-06T07:44:43.267Z,59.75
2018-03-06T07:47:11.633Z,60.80
2018-03-06T07:49:39.909Z,60.45
2018-03-06T07:52:08.172Z,55.00
2018-03-06T07:54:35.707Z,54.00
2018-03-06T07:57:03.186Z,54.38
2018-03-06T07:59:30.660Z,57.75
2018-03-06T08:01:59.033Z,57.70
2018-03-06T08:04:26.536Z,57.97
2018-03-06T08:06:54.027Z,60.90
2018-03-06T08:09:21.502Z,55.55
2018-03-06T08:11:49.019Z,54.83
2018-03-06T08:14:16.503Z,56.58
2018-03-06T08:16:43.994Z,57.10
2018-03-06T08:19:12.243Z,57.10
2018-03-06T08:21:39.771Z,55.15
2018-03-06T08:24:07.303Z,52.97
2018-03-06T08:26:35.631Z,54.95
2018-03-06T08:29:03.121Z,54.40
2018-03-06T08:31:31.384Z,56.90
2018-03-06T08:33:58.870Z,53.87
2018-03-06T08:36:27.156Z,55.78
2018-03-06T08:38:54.692Z,52.70
2018-03-06T08:41:22.182Z,55.35
2018-03-06T08:43:49.693Z,52.30
2018-03-06T08:46:18.017Z,53.87
2018-03-06T08:48:45.514Z,53.85
2018-03-06T08:51:13.069Z,54.47
2018-03-06T08:53:40.540Z,55.55
2018-03-06T08:56:08.079Z,54.47
2018-03-06T08:58:35.558Z,55.70
2018-03-06T09:01:03.040Z,54.25
2018-03-06T09:03:30.609Z,54.28
2018-03-06T09:05:58.070Z,51.70
2018-03-06T09:08:26.332Z,54.67
2018-03-06T09:10:54.603Z,57.17
2018-03-06T09:13:22.121Z,53.45
2018-03-06T09:15:49.605Z,50.72
2018-03-06T09:18:17.126Z,52.60
2018-03-06T09:20:44.586Z,49.70
2018-03-06T09:23:12.095Z,51.72
2018-03-06T09:25:40.354Z,54.50
2018-03-06T09:28:07.854Z,52.65
2018-03-06T09:30:36.142Z,54.63
2018-03-06T09:33:04.399Z,54.70
2018-03-06T09:35:31.883Z,52.92
2018-03-06T09:37:59.358Z,51.47
2018-03-06T09:40:26.861Z,53.65
2018-03-06T09:42:54.328Z,54.53
2018-03-06T09:45:21.855Z,52.50
2018-03-06T09:47:49.332Z,53.35
2018-03-06T09:50:16.807Z,54.47
2018-03-06T09:52:45.091Z,52.67
2018-03-06T09:55:13.343Z,53.92
2018-03-06T09:57:41.475Z,50.75
2018-03-06T10:00:08.966Z,56.00
2018-03-06T10:02:36.471Z,51.10
2018-03-06T10:05:04.711Z,53.72
2018-03-06T10:07:32.226Z,53.22
2018-03-06T10:09:59.714Z,53.78
2018-03-06T10:12:27.207Z,54.05
2018-03-06T10:14:55.482Z,57.33
2018-03-06T10:17:22.956Z,55.17
2018-03-06T10:19:51.235Z,53.72
2018-03-06T10:22:18.742Z,55.20
2018-03-06T10:24:46.272Z,51.40
2018-03-06T10:27:13.767Z,52.92
2018-03-06T10:29:41.279Z,53.00
2018-03-06T10:32:08.770Z,54.78
2018-03-06T10:34:36.307Z,53.35
2018-03-06T10:37:03.808Z,54.50
2018-03-06T10:39:31.384Z,54.83
2018-03-06T10:41:58.848Z,53.47
2018-03-06T10:44:26.343Z,53.87
2018-03-06T10:46:53.845Z,54.47
2018-03-06T10:49:21.343Z,54.03
2018-03-06T10:51:48.838Z,54.35
2018-03-06T10:54:16.315Z,50.75
2018-03-06T10:56:43.859Z,53.78
2018-03-06T10:59:11.334Z,53.25
2018-03-06T11:01:38.816Z,56.08
2018-03-06T11:04:07.113Z,53.55
2018-03-06T11:06:35.358Z,52.15
2018-03-06T11:09:02.891Z,54.22
2018-03-06T11:11:30.368Z,50.65
2018-03-06T11:13:57.884Z,51.22
2018-03-06T11:16:25.402Z,50.30
2018-03-06T11:18:52.922Z,51.85
2018-03-06T11:21:20.404Z,50.75
2018-03-06T11:23:47.921Z,49.85
2018-03-06T11:26:15.388Z,53.65
2018-03-06T11:28:42.923Z,51.50
2018-03-06T11:31:10.444Z,50.22
2018-03-06T11:33:37.927Z,49.88
2018-03-06T11:36:05.440Z,53.95
2018-03-06T11:38:32.946Z,50.95
2018-03-06T11:41:01.241Z,52.78
2018-03-06T11:43:28.771Z,52.25
2018-03-06T11:45:56.306Z,49.83
2018-03-06T11:48:23.803Z,52.95
2018-03-06T11:50:52.111Z,53.05
2018-03-06T11:53:19.598Z,55.47
2018-03-06T11:55:47.110Z,49.63
2018-03-06T11:58:15.354Z,54.90
2018-03-06T12:00:42.832Z,51.42
2018-03-06T12:03:11.095Z,49.17
2018-03-06T12:05:38.643Z,50.95
2018-03-06T12:08:06.133Z,51.28
2018-03-06T12:10:34.384Z,51.40
2018-03-06T12:13:01.887Z,50.50
2018-03-06T12:15:29.398Z,49.47
2018-03-06T12:17:56.906Z,51.47
2018-03-06T12:20:24.445Z,51.42
2018-03-06T12:22:52.661Z,51.10
2018-03-06T12:25:20.191Z,50.55
2018-03-06T12:27:48.450Z,47.55
2018-03-06T12:30:16.678Z,44.45
2018-03-06T12:32:44.171Z,44.38
2018-03-06T12:35:11.724Z,43.47
2018-03-06T12:37:39.254Z,39.50
2018-03-06T12:40:06.734Z,36.95
2018-03-06T12:42:34.236Z,40.83
2018-03-06T12:45:02.489Z,36.63
2018-03-06T12:47:30.779Z,34.95
2018-03-06T12:49:59.019Z,33.80
2018-03-06T12:52:26.503Z,36.60
2018-03-06T12:54:54.047Z,34.85
2018-03-06T12:57:21.547Z,36.88
2018-03-06T12:59:49.819Z,35.85
2018-03-06T13:02:18.117Z,36.60
2018-03-06T13:04:45.639Z,34.25
2018-03-06T13:07:13.166Z,35.33
2018-03-06T13:09:40.632Z,36.38
2018-03-06T13:12:08.142Z,36.78
2018-03-06T13:14:35.630Z,33.50
2018-03-06T13:17:03.123Z,36.88
2018-03-06T13:19:30.621Z,36.08
2018-03-06T13:21:58.122Z,36.15
2018-03-06T13:24:25.602Z,36.38
2018-03-06T13:26:53.184Z,35.03
2018-03-06T13:29:21.482Z,34.75
2018-03-06T13:31:49.004Z,33.33
2018-03-06T13:34:16.487Z,32.92
2018-03-06T13:36:43.958Z,34.53
2018-03-06T13:39:11.459Z,31.90
2018-03-06T13:41:38.954Z,32.58
2018-03-06T13:44:07.234Z,35.63
2018-03-06T13:46:34.718Z,30.55
2018-03-06T13:49:02.250Z,28.62
2018-03-06T13:51:30.507Z,28.42
2018-03-06T13:53:57.962Z,28.55
2018-03-06T13:56:25.483Z,27.13
2018-03-06T13:58:52.937Z,24.87
2018-03-06T14:01:20.469Z,24.23
2018-03-06T14:03:48.700Z,26.80
2018-03-06T14:06:16.224Z,26.83
2018-03-06T14:08:43.731Z,25.98
2018-03-06T14:11:11.202Z,30.00
2018-03-06T14:13:39.455Z,29.10
2018-03-06T14:16:06.959Z,28.38
2018-03-06T14:18:35.233Z,31.48
2018-03-06T14:21:02.719Z,28.73
2018-03-06T14:23:30.222Z,26.45
2018-03-06T14:25:57.692Z,27.40
2018-03-06T14:28:25.970Z,25.30
2018-03-06T14:30:54.218Z,26.70
2018-03-06T14:33:21.673Z,25.90
2018-03-06T14:35:49.172Z,28.45
2018-03-06T14:38:17.424Z,26.52
2018-03-06T14:40:44.923Z,27.62
2018-03-06T14:43:12.390Z,28.90
2018-03-06T14:45:39.941Z,28.75
2018-03-06T14:48:07.430Z,28.50
2018-03-06T14:50:34.902Z,28.10
2018-03-06T14:53:02.405Z,28.23
2018-03-06T14:55:30.659Z,28.58
2018-03-06T14:57:58.161Z,29.00
2018-03-06T15:00:25.651Z,27.77
2018-03-06T15:02:53.173Z,29.08
2018-03-06T15:05:20.651Z,27.25
2018-03-06T15:07:48.123Z,29.50
2018-03-06T15:10:15.619Z,27.98
2018-03-06T15:12:43.899Z,27.95
2018-03-06T15:15:12.159Z,26.98
2018-03-06T15:17:39.643Z,28.48
2018-03-06T15:20:07.912Z,28.30
2018-03-06T15:22:36.158Z,29.37
2018-03-06T15:25:03.652Z,31.67
2018-03-06T15:27:31.894Z,29.67
2018-03-06T15:29:59.421Z,39.50
2018-03-06T15:32:26.907Z,63.47
2018-03-06T15:34:54.400Z,29.05
2018-03-06T15:37:22.679Z,32.85
2018-03-06T15:39:50.931Z,31.65
2018-03-06T15:42:18.444Z,34.08
2018-03-06T15:44:45.923Z,39.08
2018-03-06T15:47:13.463Z,39.97
2018-03-06T15:49:40.981Z,39.92
2018-03-06T15:52:08.453Z,39.70
2018-03-06T15:54:36.703Z,42.33
2018-03-06T15:57:04.203Z,40.67
2018-03-06T15:59:31.731Z,41.17
2018-03-06T16:01:59.232Z,40.97
2018-03-06T16:04:26.719Z,43.72
2018-03-06T16:06:54.216Z,40.75
2018-03-06T16:09:22.493Z,41.25
2018-03-06T16:11:50.738Z,41.60
2018-03-06T16:14:18.251Z,40.12
2018-03-06T16:16:45.724Z,39.58
2018-03-06T16:19:13.235Z,43.10
2018-03-06T16:21:41.482Z,38.55
2018-03-06T16:24:09.013Z,39.78
2018-03-06T16:26:36.502Z,45.40
2018-03-06T16:29:04.065Z,41.83
2018-03-06T16:31:31.548Z,43.30
2018-03-06T16:33:59.020Z,42.47
2018-03-06T16:36:27.295Z,45.83
2018-03-06T16:38:55.571Z,43.85
2018-03-06T16:41:23.834Z,43.53
2018-03-06T16:43:51.359Z,45.97
2018-03-06T16:46:18.891Z,47.40
2018-03-06T16:48:46.372Z,44.15
2018-03-06T16:51:13.900Z,43.83
2018-03-06T16:53:42.139Z,46.95
2018-03-06T16:56:09.649Z,43.53
2018-03-06T16:58:37.171Z,42.45
2018-03-06T17:01:05.365Z,46.75
2018-03-06T17:03:33.611Z,43.42
2018-03-06T17:06:01.080Z,43.87
2018-03-06T17:08:28.585Z,42.22
2018-03-06T17:10:56.075Z,44.83
2018-03-06T17:13:23.594Z,41.00
2018-03-06T17:15:51.122Z,41.22
2018-03-06T17:18:19.398Z,45.17
2018-03-06T17:20:46.908Z,69.45
2018-03-06T17:23:14.446Z,56.53
2018-03-06T17:25:41.952Z,50.85
2018-03-06T17:28:09.450Z,36.33
2018-03-06T17:30:37.703Z,39.97
2018-03-06T17:33:05.192Z,29.83
2018-03-06T17:35:32.691Z,28.35
2018-03-06T17:38:00.185Z,27.48
2018-03-06T17:40:27.681Z,29.65
2018-03-06T17:42:55.171Z,28.92
2018-03-06T17:45:22.671Z,29.95
2018-03-06T17:47:50.931Z,28.58
2018-03-06T17:50:18.929Z,29.58
2018-03-06T17:52:46.439Z,32.70
2018-03-06T17:55:13.941Z,32.50
2018-03-06T17:57:42.204Z,30.65
2018-03-06T18:00:09.678Z,30.98
2018-03-06T18:02:37.954Z,31.65
2018-03-06T18:05:06.220Z,28.38
2018-03-06T18:07:34.511Z,29.90
2018-03-06T18:10:02.748Z,31.00
2018-03-06T18:12:30.249Z,32.33
2018-03-06T18:14:58.498Z,30.40
2018-03-06T18:17:26.800Z,27.70
2018-03-06T18:19:55.045Z,30.00
2018-03-06T18:22:22.560Z,28.12
2018-03-06T18:24:50.072Z,28.25
2018-03-06T18:27:18.338Z,28.67
2018-03-06T18:29:45.832Z,29.40
2018-03-06T18:32:14.112Z,27.27
2018-03-06T18:34:42.413Z,28.77
2018-03-06T18:37:09.893Z,28.02
2018-03-06T18:39:37.421Z,30.15
2018-03-06T18:42:04.915Z,30.95
2018-03-06T18:44:32.421Z,25.45
2018-03-06T18:47:00.659Z,26.20
2018-03-06T18:49:28.191Z,25.55
2018-03-06T18:51:55.668Z,25.88
2018-03-06T18:54:23.151Z,27.83
2018-03-06T18:56:50.674Z,36.90
2018-03-06T18:59:18.181Z,31.35
2018-03-06T19:05:07.202Z,30.52
2018-03-06T19:07:34.753Z,30.10
2018-03-06T19:10:02.225Z,26.85
2018-03-06T19:12:29.746Z,26.87
2018-03-06T19:14:57.986Z,41.03
2018-03-06T19:17:25.499Z,36.05
2018-03-06T19:19:53.014Z,31.05
2018-03-06T19:22:20.498Z,29.55
2018-03-06T19:24:48.779Z,27.37
2018-03-06T19:27:17.049Z,28.15
2018-03-06T19:29:45.324Z,26.97
2018-03-06T19:32:12.811Z,33.38
2018-03-06T19:34:40.370Z,29.85
2018-03-06T19:37:07.903Z,33.85
2018-03-06T19:39:36.147Z,33.83
2018-03-06T19:42:03.647Z,33.88
2018-03-06T19:44:31.890Z,36.65
2018-03-06T19:46:59.430Z,36.92
2018-03-06T19:49:26.898Z,31.20
2018-03-06T19:51:54.396Z,30.92
2018-03-06T19:54:22.643Z,30.42
2018-03-06T19:56:50.161Z,26.80
2018-03-06T19:59:17.658Z,25.75
2018-03-06T20:01:45.193Z,27.75
2018-03-06T20:04:12.691Z,28.35
2018-03-06T20:06:40.179Z,26.95
2018-03-06T20:09:08.442Z,25.95
2018-03-06T20:11:36.701Z,30.77
2018-03-06T20:14:04.170Z,32.10
2018-03-06T20:16:32.442Z,30.83
2018-03-06T20:19:05.572Z,31.50
2018-03-06T20:21:33.071Z,30.25
2018-03-06T20:24:06.384Z,28.83
2018-03-06T20:26:34.697Z,28.92
2018-03-06T20:29:02.216Z,29.05
2018-03-06T20:31:36.082Z,28.60
2018-03-06T20:34:03.627Z,27.75
2018-03-06T20:36:31.113Z,33.55
2018-03-06T20:39:04.348Z,32.60
2018-03-06T20:41:31.834Z,36.25
2018-03-06T20:44:00.086Z,36.40
2018-03-06T20:46:34.019Z,36.45
2018-03-06T20:49:01.504Z,34.63
2018-03-06T20:51:29.025Z,35.75
2018-03-06T20:54:03.120Z,36.05
2018-03-06T20:56:30.644Z,36.33
2018-03-06T20:58:58.141Z,35.30
2018-03-06T21:01:25.626Z,35.83
2018-03-06T21:03:53.914Z,36.60
2018-03-06T21:06:21.404Z,37.47
2018-03-06T21:08:48.910Z,34.53
2018-03-06T21:11:17.180Z,35.40
2018-03-06T21:13:45.493Z,36.58
2018-03-06T21:16:13.054Z,35.60
2018-03-06T21:18:40.536Z,35.15
2018-03-06T21:21:08.037Z,34.17
2018-03-06T21:23:36.314Z,35.83
2018-03-06T21:26:04.571Z,34.50
2018-03-06T21:28:32.089Z,33.17
2018-03-06T21:30:59.570Z,31.65
2018-03-06T21:33:27.098Z,30.83
2018-03-06T21:35:54.591Z,32.80
2018-03-06T21:38:22.067Z,32.58
2018-03-06T21:40:50.358Z,31.95
2018-03-06T21:43:17.844Z,30.10
2018-03-06T21:45:45.376Z,29.33
2018-03-06T21:48:13.619Z,28.05
2018-03-06T21:50:41.124Z,27.92
2018-03-06T21:53:09.391Z,28.00
2018-03-06T21:55:37.706Z,30.75
2018-03-06T21:58:05.192Z,30.75
2018-03-06T22:00:32.695Z,32.42
2018-03-06T22:03:00.986Z,36.97
2018-03-06T22:05:28.480Z,34.72
2018-03-06T22:07:56.046Z,33.35
2018-03-06T22:10:23.566Z,34.28
2018-03-06T22:12:51.043Z,39.65
2018-03-06T22:15:18.551Z,43.92
2018-03-06T22:17:46.052Z,47.33
2018-03-06T22:20:13.567Z,49.75
2018-03-06T22:22:41.051Z,44.83
2018-03-06T22:25:09.317Z,43.55
2018-03-06T22:27:37.582Z,41.47
2018-03-06T22:30:05.125Z,42.92
2018-03-06T22:32:32.628Z,55.38
2018-03-06T22:35:00.112Z,53.78
2018-03-06T22:37:27.633Z,47.15
2018-03-06T22:39:55.914Z,50.28
2018-03-06T22:42:24.172Z,41.72
2018-03-06T22:44:51.681Z,42.85
2018-03-06T22:47:19.180Z,37.30
2018-03-06T22:49:46.658Z,32.05
2018-03-06T22:52:14.931Z,33.10
2018-03-06T22:54:42.428Z,36.75
2018-03-06T22:57:09.946Z,40.40
2018-03-06T22:59:38.199Z,40.40
2018-03-06T23:02:05.723Z,39.40
2018-03-06T23:04:33.216Z,40.88
2018-03-06T23:07:00.706Z,40.45
2018-03-06T23:09:28.979Z,40.35
2018-03-06T23:11:57.245Z,40.00
2018-03-06T23:14:24.752Z,39.50
2018-03-06T23:16:52.238Z,38.58
2018-03-06T23:19:19.759Z,42.28
2018-03-06T23:21:47.241Z,38.53
2018-03-06T23:24:14.707Z,39.63
2018-03-06T23:26:42.207Z,40.67
2018-03-06T23:29:09.688Z,40.22
2018-03-06T23:31:37.205Z,41.42
2018-03-06T23:34:04.695Z,40.50
2018-03-06T23:36:32.964Z,41.88
2018-03-06T23:39:01.198Z,37.50
2018-03-06T23:41:28.696Z,41.05
2018-03-06T23:43:56.935Z,36.58
2018-03-06T23:46:24.468Z,34.25
2018-03-06T23:48:51.951Z,37.97
2018-03-06T23:51:19.439Z,36.03
2018-03-06T23:53:46.936Z,36.00
2018-03-06T23:56:14.482Z,41.42
2018-03-06T23:58:41.929Z,45.20
